sensor_id;sensor_type;location;lat;lon;timestamp;pressure;altitude;pressure_sealevel;temperature;humidity
41044;BME280;51680;49.806;18.774;2023-03-01T00:02:39;98551.13;;;0.03;70.34
41044;BME280;51680;49.806;18.774;2023-03-01T00:06:01;98548.50;;;0.19;69.49
41044;BME280;51680;49.806;18.774;2023-03-01T00:09:03;98544.19;;;0.28;69.29
41044;BME280;51680;49.806;18.774;2023-03-01T00:12:06;98546.72;;;0.30;69.55
41044;BME280;51680;49.806;18.774;2023-03-01T00:15:08;98547.56;;;0.28;69.95
41044;BME280;51680;49.806;18.774;2023-03-01T00:18:11;98555.31;;;0.25;69.85
41044;BME280;51680;49.806;18.774;2023-03-01T00:21:13;98540.78;;;0.22;70.07
41044;BME280;51680;49.806;18.774;2023-03-01T00:24:15;98547.66;;;0.17;70.55
41044;BME280;51680;49.806;18.774;2023-03-01T00:27:17;98539.91;;;0.19;70.43
41044;BME280;51680;49.806;18.774;2023-03-01T00:30:19;98544.22;;;0.20;70.28
41044;BME280;51680;49.806;18.774;2023-03-01T00:33:22;98535.59;;;0.28;69.63
41044;BME280;51680;49.806;18.774;2023-03-01T00:36:26;98536.47;;;0.29;69.56
41044;BME280;51680;49.806;18.774;2023-03-01T00:39:29;98523.63;;;0.26;69.77
41044;BME280;51680;49.806;18.774;2023-03-01T00:42:30;98525.38;;;0.18;70.72
41044;BME280;51680;49.806;18.774;2023-03-01T00:45:32;98529.72;;;0.08;71.21
41044;BME280;51680;49.806;18.774;2023-03-01T00:48:36;98534.06;;;-0.07;72.16
41044;BME280;51680;49.806;18.774;2023-03-01T00:51:38;98529.88;;;-0.22;75.04
41044;BME280;51680;49.806;18.774;2023-03-01T00:54:41;98528.16;;;-0.26;72.93
41044;BME280;51680;49.806;18.774;2023-03-01T00:57:43;98532.44;;;-0.26;72.84
41044;BME280;51680;49.806;18.774;2023-03-01T01:00:45;98533.25;;;-0.21;72.50
41044;BME280;51680;49.806;18.774;2023-03-01T01:03:50;98532.41;;;-0.16;72.06
41044;BME280;51680;49.806;18.774;2023-03-01T01:06:53;98538.38;;;-0.09;71.67
41044;BME280;51680;49.806;18.774;2023-03-01T01:09:54;98533.22;;;-0.12;72.13
41044;BME280;51680;49.806;18.774;2023-03-01T01:12:56;98536.69;;;-0.19;73.12
41044;BME280;51680;49.806;18.774;2023-03-01T01:16:00;98524.69;;;-0.20;72.75
41044;BME280;51680;49.806;18.774;2023-03-01T01:19:03;98529.00;;;-0.25;73.30
41044;BME280;51680;49.806;18.774;2023-03-01T01:22:05;98524.72;;;-0.23;73.20
41044;BME280;51680;49.806;18.774;2023-03-01T01:25:08;98516.13;;;-0.16;73.09
41044;BME280;51680;49.806;18.774;2023-03-01T01:28:11;98513.53;;;-0.07;72.08
41044;BME280;51680;49.806;18.774;2023-03-01T01:31:13;98522.06;;;0.03;71.78
41044;BME280;51680;49.806;18.774;2023-03-01T01:34:19;98520.28;;;0.12;71.32
41044;BME280;51680;49.806;18.774;2023-03-01T01:37:22;98519.38;;;0.19;71.35
41044;BME280;51680;49.806;18.774;2023-03-01T01:40:23;98516.84;;;0.14;71.61
41044;BME280;51680;49.806;18.774;2023-03-01T01:43:27;98509.25;;;-0.02;72.44
41044;BME280;51680;49.806;18.774;2023-03-01T01:46:30;98511.84;;;-0.08;72.60
41044;BME280;51680;49.806;18.774;2023-03-01T01:49:36;98523.03;;;-0.27;76.08
41044;BME280;51680;49.806;18.774;2023-03-01T01:52:38;98518.78;;;-0.37;73.81
41044;BME280;51680;49.806;18.774;2023-03-01T01:55:42;98514.56;;;-0.56;74.69
41044;BME280;51680;49.806;18.774;2023-03-01T01:58:45;98509.41;;;-0.53;74.43
41044;BME280;51680;49.806;18.774;2023-03-01T02:01:48;98500.88;;;-0.55;74.25
41044;BME280;51680;49.806;18.774;2023-03-01T02:04:59;98497.50;;;-0.60;74.87
41044;BME280;51680;49.806;18.774;2023-03-01T02:08:05;98493.22;;;-0.75;75.73
41044;BME280;51680;49.806;18.774;2023-03-01T02:11:08;98490.72;;;-0.84;75.58
41044;BME280;51680;49.806;18.774;2023-03-01T02:14:10;98489.88;;;-0.99;76.02
41044;BME280;51680;49.806;18.774;2023-03-01T02:17:15;98477.94;;;-1.08;76.14
41044;BME280;51680;49.806;18.774;2023-03-01T02:20:23;98477.06;;;-1.08;76.17
41044;BME280;51680;49.806;18.774;2023-03-01T02:23:28;98479.66;;;-1.07;75.62
41044;BME280;51680;49.806;18.774;2023-03-01T02:26:35;98477.91;;;-1.05;75.13
41044;BME280;51680;49.806;18.774;2023-03-01T02:29:43;98483.88;;;-1.01;74.75
41044;BME280;51680;49.806;18.774;2023-03-01T02:32:45;98474.53;;;-1.07;74.90
41044;BME280;51680;49.806;18.774;2023-03-01T02:35:48;98471.94;;;-1.11;75.12
41044;BME280;51680;49.806;18.774;2023-03-01T02:38:52;98465.97;;;-1.06;74.00
41044;BME280;51680;49.806;18.774;2023-03-01T02:41:56;98461.69;;;-1.04;74.17
41044;BME280;51680;49.806;18.774;2023-03-01T02:44:59;98468.50;;;-0.92;73.90
41044;BME280;51680;49.806;18.774;2023-03-01T02:48:01;98465.06;;;-0.70;72.90
41044;BME280;51680;49.806;18.774;2023-03-01T02:51:07;98462.41;;;-0.49;72.03
41044;BME280;51680;49.806;18.774;2023-03-01T02:54:20;98456.38;;;-0.36;71.45
41044;BME280;51680;49.806;18.774;2023-03-01T02:57:25;98466.59;;;-0.26;71.11
41044;BME280;51680;49.806;18.774;2023-03-01T03:00:35;98454.56;;;-0.16;70.65
41044;BME280;51680;49.806;18.774;2023-03-01T03:03:40;98449.41;;;-0.10;70.37
41044;BME280;51680;49.806;18.774;2023-03-01T03:06:42;98449.41;;;-0.07;70.60
41044;BME280;51680;49.806;18.774;2023-03-01T03:09:44;98439.97;;;0.01;70.06
41044;BME280;51680;49.806;18.774;2023-03-01T03:12:49;98447.59;;;0.08;70.09
41044;BME280;51680;49.806;18.774;2023-03-01T03:15:55;98431.28;;;0.18;70.07
41044;BME280;51680;49.806;18.774;2023-03-01T03:18:57;98432.97;;;0.19;69.88
41044;BME280;51680;49.806;18.774;2023-03-01T03:22:05;98437.22;;;0.25;69.86
41044;BME280;51680;49.806;18.774;2023-03-01T03:25:09;98435.44;;;0.33;69.51
41044;BME280;51680;49.806;18.774;2023-03-01T03:28:12;98429.44;;;0.37;69.39
41044;BME280;51680;49.806;18.774;2023-03-01T03:31:15;98422.53;;;0.40;69.25
41044;BME280;51680;49.806;18.774;2023-03-01T03:34:17;98427.66;;;0.43;68.69
41044;BME280;51680;49.806;18.774;2023-03-01T03:37:19;98434.56;;;0.40;68.47
41044;BME280;51680;49.806;18.774;2023-03-01T03:40:36;98434.59;;;0.32;68.47
41044;BME280;51680;49.806;18.774;2023-03-01T03:43:39;98433.78;;;0.26;68.93
41044;BME280;51680;49.806;18.774;2023-03-01T03:46:44;98437.25;;;0.19;69.46
41044;BME280;51680;49.806;18.774;2023-03-01T03:49:46;98445.81;;;0.18;69.29
41044;BME280;51680;49.806;18.774;2023-03-01T03:52:47;98444.94;;;0.20;69.57
41044;BME280;51680;49.806;18.774;2023-03-01T03:55:49;98444.13;;;0.20;69.47
41044;BME280;51680;49.806;18.774;2023-03-01T03:58:52;98440.72;;;0.15;69.94
41044;BME280;51680;49.806;18.774;2023-03-01T04:01:55;98451.81;;;0.17;70.56
41044;BME280;51680;49.806;18.774;2023-03-01T04:04:59;98450.94;;;0.18;70.68
41044;BME280;51680;49.806;18.774;2023-03-01T04:08:01;98444.13;;;0.17;71.00
41044;BME280;51680;49.806;18.774;2023-03-01T04:11:04;98451.78;;;0.21;71.35
41044;BME280;51680;49.806;18.774;2023-03-01T04:14:20;98459.47;;;0.23;71.15
41044;BME280;51680;49.806;18.774;2023-03-01T04:17:23;98453.47;;;0.25;71.08
41044;BME280;51680;49.806;18.774;2023-03-01T04:20:27;98457.75;;;0.25;70.55
41044;BME280;51680;49.806;18.774;2023-03-01T04:23:29;98450.94;;;0.24;70.79
41044;BME280;51680;49.806;18.774;2023-03-01T04:26:31;98446.69;;;0.17;70.80
41044;BME280;51680;49.806;18.774;2023-03-01T04:29:32;98445.00;;;0.17;71.03
41044;BME280;51680;49.806;18.774;2023-03-01T04:32:35;98442.44;;;0.13;71.04
41044;BME280;51680;49.806;18.774;2023-03-01T04:35:38;98455.41;;;-0.08;71.06
41044;BME280;51680;49.806;18.774;2023-03-01T04:38:41;98452.97;;;-0.41;71.94
41044;BME280;51680;49.806;18.774;2023-03-01T04:41:43;98461.69;;;-0.90;73.54
41044;BME280;51680;49.806;18.774;2023-03-01T04:44:45;98466.00;;;-1.21;74.79
41044;BME280;51680;49.806;18.774;2023-03-01T04:47:48;98467.72;;;-1.42;74.99
41044;BME280;51680;49.806;18.774;2023-03-01T04:50:52;98475.38;;;-1.36;74.65
41044;BME280;51680;49.806;18.774;2023-03-01T04:53:54;98467.72;;;-1.24;73.87
41044;BME280;51680;49.806;18.774;2023-03-01T04:56:56;98483.06;;;-1.36;74.82
41044;BME280;51680;49.806;18.774;2023-03-01T04:59:58;98482.19;;;-1.35;74.62
41044;BME280;51680;49.806;18.774;2023-03-01T05:03:01;98473.66;;;-1.34;74.43
41044;BME280;51680;49.806;18.774;2023-03-01T05:06:03;98466.84;;;-1.44;75.09
41044;BME280;51680;49.806;18.774;2023-03-01T05:09:05;98468.56;;;-1.37;74.70
41044;BME280;51680;49.806;18.774;2023-03-01T05:12:07;98461.72;;;-1.35;74.57
41044;BME280;51680;49.806;18.774;2023-03-01T05:15:10;98454.03;;;-1.37;74.27
41044;BME280;51680;49.806;18.774;2023-03-01T05:18:13;98454.91;;;-1.33;73.79
41044;BME280;51680;49.806;18.774;2023-03-01T05:21:16;98454.03;;;-1.25;73.82
41044;BME280;51680;49.806;18.774;2023-03-01T05:24:17;98454.88;;;-1.12;73.68
41044;BME280;51680;49.806;18.774;2023-03-01T05:27:19;98453.19;;;-1.19;74.79
41044;BME280;51680;49.806;18.774;2023-03-01T05:30:22;98462.56;;;-1.29;75.67
41044;BME280;51680;49.806;18.774;2023-03-01T05:33:26;98466.88;;;-1.29;75.73
41044;BME280;51680;49.806;18.774;2023-03-01T05:36:28;98460.88;;;-1.37;76.51
41044;BME280;51680;49.806;18.774;2023-03-01T05:39:30;98453.19;;;-1.34;76.12
41044;BME280;51680;49.806;18.774;2023-03-01T05:42:31;98453.16;;;-0.98;75.26
41044;BME280;51680;49.806;18.774;2023-03-01T05:45:36;98453.13;;;-0.80;75.36
41044;BME280;51680;49.806;18.774;2023-03-01T05:48:39;98453.88;;;-0.56;75.08
41044;BME280;51680;49.806;18.774;2023-03-01T05:51:41;98433.19;;;-0.14;73.25
41044;BME280;51680;49.806;18.774;2023-03-01T05:54:43;98440.50;;;0.43;71.73
41044;BME280;51680;49.806;18.774;2023-03-01T05:57:46;98438.09;;;1.19;69.04
41044;BME280;51680;49.806;18.774;2023-03-01T06:00:49;98426.91;;;1.93;67.01
41044;BME280;51680;49.806;18.774;2023-03-01T06:03:52;98425.91;;;2.60;65.18
41044;BME280;51680;49.806;18.774;2023-03-01T06:06:54;98431.56;;;3.73;63.12
41044;BME280;51680;49.806;18.774;2023-03-01T06:09:55;98422.19;;;4.80;60.51
41044;BME280;51680;49.806;18.774;2023-03-01T06:13:16;98423.03;;;5.14;57.92
41044;BME280;51680;49.806;18.774;2023-03-01T06:16:18;98417.31;;;5.35;57.72
41044;BME280;51680;49.806;18.774;2023-03-01T06:19:21;98418.59;;;6.10;56.10
41044;BME280;51680;49.806;18.774;2023-03-01T06:22:22;98423.28;;;6.27;54.37
41044;BME280;51680;49.806;18.774;2023-03-01T06:25:25;98417.19;;;6.55;53.40
41044;BME280;51680;49.806;18.774;2023-03-01T06:28:27;98423.94;;;6.61;52.60
41044;BME280;51680;49.806;18.774;2023-03-01T06:31:48;98417.69;;;6.92;52.45
41044;BME280;51680;49.806;18.774;2023-03-01T06:34:51;98415.72;;;7.49;51.24
41044;BME280;51680;49.806;18.774;2023-03-01T06:38:11;98404.78;;;8.33;49.62
41044;BME280;51680;49.806;18.774;2023-03-01T06:41:15;98405.81;;;8.92;48.90
41044;BME280;51680;49.806;18.774;2023-03-01T06:44:17;98400.97;;;9.83;47.16
41044;BME280;51680;49.806;18.774;2023-03-01T06:47:18;98406.91;;;10.96;45.55
41044;BME280;51680;49.806;18.774;2023-03-01T06:50:21;98398.22;;;12.12;43.99
41044;BME280;51680;49.806;18.774;2023-03-01T06:53:23;98405.53;;;13.14;42.50
41044;BME280;51680;49.806;18.774;2023-03-01T06:56:25;98408.00;;;13.88;40.92
41044;BME280;51680;49.806;18.774;2023-03-01T06:59:27;98414.84;;;14.73;39.99
41044;BME280;51680;49.806;18.774;2023-03-01T07:02:28;98414.06;;;15.38;39.42
41044;BME280;51680;49.806;18.774;2023-03-01T07:05:33;98402.81;;;16.72;36.64
41044;BME280;51680;49.806;18.774;2023-03-01T07:08:34;98400.88;;;18.01;36.31
41044;BME280;51680;49.806;18.774;2023-03-01T07:11:37;98410.22;;;19.25;35.01
41044;BME280;51680;49.806;18.774;2023-03-01T07:14:38;98406.75;;;20.27;33.32
41044;BME280;51680;49.806;18.774;2023-03-01T07:17:40;98405.03;;;21.05;32.02
41044;BME280;51680;49.806;18.774;2023-03-01T07:20:43;98410.09;;;21.75;30.71
41044;BME280;51680;49.806;18.774;2023-03-01T07:23:47;98405.19;;;22.26;29.62
41044;BME280;51680;49.806;18.774;2023-03-01T07:26:49;98397.56;;;22.77;29.54
41044;BME280;51680;49.806;18.774;2023-03-01T07:29:50;98405.47;;;23.31;28.61
41044;BME280;51680;49.806;18.774;2023-03-01T07:32:53;98403.59;;;23.58;28.41
41044;BME280;51680;49.806;18.774;2023-03-01T07:36:00;98397.44;;;23.83;25.27
41044;BME280;51680;49.806;18.774;2023-03-01T07:39:02;98400.53;;;24.14;27.44
41044;BME280;51680;49.806;18.774;2023-03-01T07:42:04;98392.94;;;24.35;27.48
41044;BME280;51680;49.806;18.774;2023-03-01T07:45:08;98393.97;;;24.67;27.09
41044;BME280;51680;49.806;18.774;2023-03-01T07:48:10;98399.09;;;25.10;27.05
41044;BME280;51680;49.806;18.774;2023-03-01T07:51:13;98398.72;;;25.63;26.11
41044;BME280;51680;49.806;18.774;2023-03-01T07:54:15;98391.00;;;25.60;26.46
41044;BME280;51680;49.806;18.774;2023-03-01T07:57:17;98384.38;;;23.72;25.78
41044;BME280;51680;49.806;18.774;2023-03-01T08:00:19;98384.19;;;23.74;26.78
41044;BME280;51680;49.806;18.774;2023-03-01T08:03:21;98382.47;;;24.67;26.10
41044;BME280;51680;49.806;18.774;2023-03-01T08:06:25;98379.94;;;25.23;24.87
41044;BME280;51680;49.806;18.774;2023-03-01T08:09:27;98372.63;;;25.57;24.96
41044;BME280;51680;49.806;18.774;2023-03-01T08:12:29;98363.56;;;25.98;25.00
41044;BME280;51680;49.806;18.774;2023-03-01T08:15:31;98370.78;;;26.60;24.21
41044;BME280;51680;49.806;18.774;2023-03-01T08:18:33;98362.00;;;26.74;24.01
41044;BME280;51680;49.806;18.774;2023-03-01T08:21:36;98361.38;;;26.64;23.72
41044;BME280;51680;49.806;18.774;2023-03-01T08:28:32;98341.25;;;26.76;23.85
41044;BME280;51680;49.806;18.774;2023-03-01T08:31:35;98332.41;;;26.90;23.13
41044;BME280;51680;49.806;18.774;2023-03-01T08:34:37;98328.03;;;26.97;17.89
41044;BME280;51680;49.806;18.774;2023-03-01T08:37:40;98334.41;;;26.65;21.18
41044;BME280;51680;49.806;18.774;2023-03-01T08:40:42;98337.34;;;25.37;23.75
41044;BME280;51680;49.806;18.774;2023-03-01T08:43:44;98325.75;;;23.37;24.69
41044;BME280;51680;49.806;18.774;2023-03-01T08:46:46;98330.22;;;23.02;25.45
41044;BME280;51680;49.806;18.774;2023-03-01T08:49:50;98322.88;;;23.99;25.19
41044;BME280;51680;49.806;18.774;2023-03-01T08:52:54;98329.47;;;25.36;24.34
41044;BME280;51680;49.806;18.774;2023-03-01T08:55:59;98331.94;;;25.85;22.01
41044;BME280;51680;49.806;18.774;2023-03-01T08:59:01;98331.81;;;26.41;23.09
41044;BME280;51680;49.806;18.774;2023-03-01T09:02:03;98340.88;;;26.79;22.63
41044;BME280;51680;49.806;18.774;2023-03-01T09:05:05;98340.28;;;26.91;22.76
41044;BME280;51680;49.806;18.774;2023-03-01T09:08:08;98340.47;;;26.90;21.89
41044;BME280;51680;49.806;18.774;2023-03-01T09:11:12;98345.47;;;26.62;22.22
41044;BME280;51680;49.806;18.774;2023-03-01T09:14:15;98336.50;;;23.71;23.01
41044;BME280;51680;49.806;18.774;2023-03-01T09:17:17;98346.00;;;22.41;24.62
41044;BME280;51680;49.806;18.774;2023-03-01T09:20:21;98340.38;;;21.81;25.68
41044;BME280;51680;49.806;18.774;2023-03-01T09:23:25;98340.28;;;22.46;25.24
41044;BME280;51680;49.806;18.774;2023-03-01T09:26:26;98340.88;;;21.10;25.20
41044;BME280;51680;49.806;18.774;2023-03-01T09:29:28;98332.75;;;21.40;26.02
41044;BME280;51680;49.806;18.774;2023-03-01T09:32:30;98330.91;;;22.42;25.36
41044;BME280;51680;49.806;18.774;2023-03-01T09:35:32;98326.09;;;22.18;25.53
41044;BME280;51680;49.806;18.774;2023-03-01T09:38:35;98329.63;;;21.54;25.06
41044;BME280;51680;49.806;18.774;2023-03-01T09:41:45;98315.38;;;22.10;23.34
41044;BME280;51680;49.806;18.774;2023-03-01T09:44:50;98319.72;;;23.18;24.46
41044;BME280;51680;49.806;18.774;2023-03-01T09:47:53;98316.66;;;22.60;25.02
41044;BME280;51680;49.806;18.774;2023-03-01T09:50:56;98318.38;;;22.25;25.28
41044;BME280;51680;49.806;18.774;2023-03-01T09:54:01;98311.75;;;23.00;24.07
41044;BME280;51680;49.806;18.774;2023-03-01T09:57:14;98316.66;;;21.51;23.97
41044;BME280;51680;49.806;18.774;2023-03-01T10:00:31;98319.56;;;21.57;24.26
41044;BME280;51680;49.806;18.774;2023-03-01T10:03:39;98313.03;;;22.25;24.66
41044;BME280;51680;49.806;18.774;2023-03-01T10:06:51;98311.94;;;23.07;23.93
41044;BME280;51680;49.806;18.774;2023-03-01T10:10:00;98309.53;;;23.31;24.36
41044;BME280;51680;49.806;18.774;2023-03-01T10:13:10;98306.22;;;23.80;22.54
41044;BME280;51680;49.806;18.774;2023-03-01T10:16:19;98298.69;;;23.50;23.61
41044;BME280;51680;49.806;18.774;2023-03-01T10:19:25;98298.84;;;23.74;23.69
41044;BME280;51680;49.806;18.774;2023-03-01T10:22:30;98299.53;;;23.50;24.29
41044;BME280;51680;49.806;18.774;2023-03-01T10:25:44;98302.16;;;23.25;20.96
41044;BME280;51680;49.806;18.774;2023-03-01T10:28:56;98305.19;;;22.77;23.17
41044;BME280;51680;49.806;18.774;2023-03-01T10:32:03;98300.97;;;21.57;25.14
41044;BME280;51680;49.806;18.774;2023-03-01T10:35:16;98299.97;;;22.04;22.29
41044;BME280;51680;49.806;18.774;2023-03-01T10:38:19;98303.75;;;22.38;24.77
41044;BME280;51680;49.806;18.774;2023-03-01T10:41:24;98301.16;;;22.56;23.78
41044;BME280;51680;49.806;18.774;2023-03-01T10:44:44;98290.94;;;22.24;21.53
41044;BME280;51680;49.806;18.774;2023-03-01T10:47:46;98294.63;;;22.14;24.99
41044;BME280;51680;49.806;18.774;2023-03-01T10:50:49;98286.44;;;22.25;24.76
41044;BME280;51680;49.806;18.774;2023-03-01T10:53:52;98279.53;;;22.05;24.74
41044;BME280;51680;49.806;18.774;2023-03-01T10:56:57;98273.31;;;21.41;24.37
41044;BME280;51680;49.806;18.774;2023-03-01T11:00:16;98271.78;;;20.04;23.75
41044;BME280;51680;49.806;18.774;2023-03-01T11:03:21;98275.44;;;17.94;27.47
41044;BME280;51680;49.806;18.774;2023-03-01T11:06:24;98275.09;;;16.40;29.47
41044;BME280;51680;49.806;18.774;2023-03-01T11:09:31;98275.28;;;15.03;30.79
41044;BME280;51680;49.806;18.774;2023-03-01T11:12:39;98279.03;;;13.66;32.90
41044;BME280;51680;49.806;18.774;2023-03-01T11:15:42;98283.66;;;12.62;34.04
41044;BME280;51680;49.806;18.774;2023-03-01T11:18:56;98286.50;;;11.81;35.07
41044;BME280;51680;49.806;18.774;2023-03-01T11:22:02;98283.59;;;11.22;36.68
41044;BME280;51680;49.806;18.774;2023-03-01T11:25:07;98285.72;;;9.94;39.37
41044;BME280;51680;49.806;18.774;2023-03-01T11:28:16;98285.13;;;8.93;41.31
41044;BME280;51680;49.806;18.774;2023-03-01T11:31:18;98269.63;;;9.10;40.85
41044;BME280;51680;49.806;18.774;2023-03-01T11:34:25;98260.34;;;9.23;40.90
41044;BME280;51680;49.806;18.774;2023-03-01T11:37:34;98264.97;;;8.78;43.00
41044;BME280;51680;49.806;18.774;2023-03-01T11:40:43;98256.31;;;8.58;43.23
41044;BME280;51680;49.806;18.774;2023-03-01T11:43:51;98250.97;;;8.81;43.32
41044;BME280;51680;49.806;18.774;2023-03-01T11:47:22;98247.75;;;8.94;43.10
41044;BME280;51680;49.806;18.774;2023-03-01T11:50:30;98247.44;;;8.82;43.75
41044;BME280;51680;49.806;18.774;2023-03-01T11:53:50;98235.06;;;8.87;42.82
41044;BME280;51680;49.806;18.774;2023-03-01T11:56:55;98242.25;;;8.82;42.11
41044;BME280;51680;49.806;18.774;2023-03-01T12:00:27;98241.53;;;8.78;43.14
41044;BME280;51680;49.806;18.774;2023-03-01T12:04:04;98241.25;;;8.84;43.85
41044;BME280;51680;49.806;18.774;2023-03-01T12:07:14;98233.03;;;8.75;43.11
41044;BME280;51680;49.806;18.774;2023-03-01T12:10:23;98240.19;;;8.70;42.67
41044;BME280;51680;49.806;18.774;2023-03-01T12:13:44;98238.31;;;8.53;42.96
41044;BME280;51680;49.806;18.774;2023-03-01T12:17:08;98238.47;;;8.49;42.94
41044;BME280;51680;49.806;18.774;2023-03-01T12:20:23;98232.03;;;8.37;41.76
41044;BME280;51680;49.806;18.774;2023-03-01T12:27:20;98223.41;;;8.15;42.30
41044;BME280;51680;49.806;18.774;2023-03-01T12:30:39;98213.25;;;8.09;42.69
41044;BME280;51680;49.806;18.774;2023-03-01T12:33:51;98202.38;;;8.00;43.22
41044;BME280;51680;49.806;18.774;2023-03-01T12:37:11;98203.34;;;7.97;43.45
41044;BME280;51680;49.806;18.774;2023-03-01T12:44:07;98199.97;;;7.95;42.57
41044;BME280;51680;49.806;18.774;2023-03-01T12:47:20;98206.38;;;7.87;42.59
41044;BME280;51680;49.806;18.774;2023-03-01T12:50:39;98202.09;;;7.64;43.43
41044;BME280;51680;49.806;18.774;2023-03-01T12:53:46;98195.22;;;7.63;43.31
41044;BME280;51680;49.806;18.774;2023-03-01T12:56:48;98195.00;;;7.68;42.84
41044;BME280;51680;49.806;18.774;2023-03-01T13:00:04;98191.84;;;7.61;43.43
41044;BME280;51680;49.806;18.774;2023-03-01T13:03:19;98203.41;;;7.74;43.23
41044;BME280;51680;49.806;18.774;2023-03-01T13:06:32;98198.78;;;7.82;43.01
41044;BME280;51680;49.806;18.774;2023-03-01T13:09:47;98194.28;;;7.86;42.58
41044;BME280;51680;49.806;18.774;2023-03-01T13:13:00;98196.06;;;7.85;42.58
41044;BME280;51680;49.806;18.774;2023-03-01T13:19:38;98185.38;;;7.71;42.67
41044;BME280;51680;49.806;18.774;2023-03-01T13:22:43;98180.28;;;7.47;42.60
41044;BME280;51680;49.806;18.774;2023-03-01T13:26:17;98179.06;;;7.55;42.71
41044;BME280;51680;49.806;18.774;2023-03-01T13:29:26;98179.22;;;7.52;42.14
41044;BME280;51680;49.806;18.774;2023-03-01T13:32:29;98175.34;;;7.62;42.64
41044;BME280;51680;49.806;18.774;2023-03-01T13:35:43;98184.81;;;7.63;42.30
41044;BME280;51680;49.806;18.774;2023-03-01T13:38:48;98186.91;;;7.54;42.53
41044;BME280;51680;49.806;18.774;2023-03-01T13:41:57;98175.66;;;7.55;42.21
41044;BME280;51680;49.806;18.774;2023-03-01T13:45:00;98178.97;;;7.58;41.95
41044;BME280;51680;49.806;18.774;2023-03-01T13:48:08;98169.28;;;7.62;41.81
41044;BME280;51680;49.806;18.774;2023-03-01T13:51:11;98167.53;;;7.62;42.11
41044;BME280;51680;49.806;18.774;2023-03-01T13:54:18;98163.47;;;7.55;42.19
41044;BME280;51680;49.806;18.774;2023-03-01T13:57:26;98165.31;;;7.53;42.02
41044;BME280;51680;49.806;18.774;2023-03-01T14:00:34;98159.97;;;7.56;42.18
41044;BME280;51680;49.806;18.774;2023-03-01T14:03:41;98159.63;;;7.65;42.44
41044;BME280;51680;49.806;18.774;2023-03-01T14:06:43;98161.81;;;7.54;42.01
41044;BME280;51680;49.806;18.774;2023-03-01T14:09:48;98167.84;;;7.55;41.91
41044;BME280;51680;49.806;18.774;2023-03-01T14:12:55;98161.53;;;7.60;42.60
41044;BME280;51680;49.806;18.774;2023-03-01T14:16:12;98153.69;;;7.62;42.48
41044;BME280;51680;49.806;18.774;2023-03-01T14:19:17;98142.34;;;7.64;42.65
41044;BME280;51680;49.806;18.774;2023-03-01T14:22:23;98144.34;;;7.58;42.10
41044;BME280;51680;49.806;18.774;2023-03-01T14:25:28;98140.41;;;7.48;42.35
41044;BME280;51680;49.806;18.774;2023-03-01T14:28:32;98156.84;;;7.27;39.49
41044;BME280;51680;49.806;18.774;2023-03-01T14:31:38;98141.56;;;7.19;39.96
41044;BME280;51680;49.806;18.774;2023-03-01T14:34:45;98150.28;;;7.40;40.02
41044;BME280;51680;49.806;18.774;2023-03-01T14:37:46;98144.34;;;7.36;40.09
41044;BME280;51680;49.806;18.774;2023-03-01T14:40:55;98163.34;;;7.15;40.40
41044;BME280;51680;49.806;18.774;2023-03-01T14:44:00;98164.22;;;7.16;41.55
41044;BME280;51680;49.806;18.774;2023-03-01T14:47:03;98151.13;;;7.17;41.54
41044;BME280;51680;49.806;18.774;2023-03-01T14:50:09;98158.78;;;7.22;41.37
41044;BME280;51680;49.806;18.774;2023-03-01T14:53:18;98154.06;;;7.31;41.44
41044;BME280;51680;49.806;18.774;2023-03-01T14:56:22;98145.66;;;7.25;42.76
41044;BME280;51680;49.806;18.774;2023-03-01T14:59:24;98140.09;;;7.34;41.98
41044;BME280;51680;49.806;18.774;2023-03-01T15:02:27;98139.81;;;7.41;42.58
41044;BME280;51680;49.806;18.774;2023-03-01T15:05:31;98141.78;;;7.35;43.12
41044;BME280;51680;49.806;18.774;2023-03-01T15:08:34;98141.13;;;7.30;42.64
41044;BME280;51680;49.806;18.774;2023-03-01T15:11:38;98143.66;;;7.31;43.31
41044;BME280;51680;49.806;18.774;2023-03-01T15:14:43;98147.94;;;7.32;43.02
41044;BME280;51680;49.806;18.774;2023-03-01T15:17:52;98140.16;;;7.32;43.64
41044;BME280;51680;49.806;18.774;2023-03-01T15:21:06;98140.16;;;7.32;44.23
41044;BME280;51680;49.806;18.774;2023-03-01T15:24:17;98145.59;;;7.26;44.45
41044;BME280;51680;49.806;18.774;2023-03-01T15:27:23;98142.09;;;7.27;44.03
41044;BME280;51680;49.806;18.774;2023-03-01T15:30:28;98140.41;;;7.26;44.60
41044;BME280;51680;49.806;18.774;2023-03-01T15:33:36;98136.91;;;7.27;43.98
41044;BME280;51680;49.806;18.774;2023-03-01T15:36:43;98142.22;;;7.24;44.57
41044;BME280;51680;49.806;18.774;2023-03-01T15:39:52;98132.19;;;7.15;45.71
41044;BME280;51680;49.806;18.774;2023-03-01T15:42:56;98139.03;;;7.18;45.30
41044;BME280;51680;49.806;18.774;2023-03-01T15:45:58;98150.44;;;7.14;45.42
41044;BME280;51680;49.806;18.774;2023-03-01T15:49:02;98141.81;;;7.13;45.69
41044;BME280;51680;49.806;18.774;2023-03-01T15:52:06;98142.81;;;7.09;45.27
41044;BME280;51680;49.806;18.774;2023-03-01T15:55:16;98142.94;;;7.06;45.69
41044;BME280;51680;49.806;18.774;2023-03-01T15:58:22;98138.81;;;7.01;46.11
41044;BME280;51680;49.806;18.774;2023-03-01T16:01:23;98134.56;;;6.98;46.05
41044;BME280;51680;49.806;18.774;2023-03-01T16:04:26;98127.84;;;6.94;45.86
41044;BME280;51680;49.806;18.774;2023-03-01T16:07:28;98129.63;;;6.92;46.23
41044;BME280;51680;49.806;18.774;2023-03-01T16:10:31;98142.69;;;6.89;45.79
41044;BME280;51680;49.806;18.774;2023-03-01T16:13:34;98135.06;;;6.86;46.39
41044;BME280;51680;49.806;18.774;2023-03-01T16:16:36;98131.66;;;6.84;46.42
41044;BME280;51680;49.806;18.774;2023-03-01T16:19:38;98138.91;;;6.76;46.54
41044;BME280;51680;49.806;18.774;2023-03-01T16:22:41;98142.50;;;6.72;46.35
41044;BME280;51680;49.806;18.774;2023-03-01T16:25:44;98137.38;;;6.71;46.38
41044;BME280;51680;49.806;18.774;2023-03-01T16:28:47;98138.22;;;6.71;46.52
41044;BME280;51680;49.806;18.774;2023-03-01T16:31:49;98135.72;;;6.68;46.57